createdAt,value
2023-01-05T00:00:32.988Z,99235.50
2023-01-05T00:03:05.770Z,99216.34
2023-01-05T00:05:37.652Z,99239.19
2023-01-05T00:08:09.589Z,99203.97
2023-01-05T00:11:00.303Z,99216.72
2023-01-05T00:13:50.839Z,99225.38
2023-01-05T00:16:41.431Z,99204.75
2023-01-05T00:19:32.189Z,99225.75
2023-01-05T00:22:32.597Z,99202.78
2023-01-05T00:25:21.804Z,99213.38
2023-01-05T00:27:55.191Z,99198.84
2023-01-05T00:30:30.430Z,99197.31
2023-01-05T00:33:02.412Z,99146.94
2023-01-05T00:35:34.325Z,99213.41
2023-01-05T00:38:07.601Z,99187.13
2023-01-05T00:40:39.630Z,99140.31
2023-01-05T00:43:11.541Z,99194.66
2023-01-05T00:45:44.348Z,99194.44
2023-01-05T00:48:16.326Z,99176.81
2023-01-05T00:50:50.436Z,99178.81
2023-01-05T00:53:22.369Z,99194.06
2023-01-05T00:56:03.177Z,99189.63
2023-01-05T00:58:34.942Z,99186.81
2023-01-05T01:01:13.840Z,99180.00
2023-01-05T01:03:45.819Z,99152.22
2023-01-05T01:06:18.129Z,99149.81
2023-01-05T01:08:50.128Z,99134.28
2023-01-05T01:11:22.039Z,99155.91
2023-01-05T01:13:53.933Z,99144.22
2023-01-05T01:16:25.836Z,99164.31
2023-01-05T01:19:00.591Z,99165.72
2023-01-05T01:21:36.263Z,99154.34
2023-01-05T01:24:08.337Z,99125.59
2023-01-05T01:26:40.281Z,99117.38
2023-01-05T01:29:12.474Z,99124.19
2023-01-05T01:31:45.764Z,99122.22
2023-01-05T01:34:18.535Z,99113.53
2023-01-05T01:36:50.693Z,99101.22
2023-01-05T01:39:22.690Z,99083.94
2023-01-05T01:41:54.617Z,99089.72
2023-01-05T01:44:48.316Z,99098.28
2023-01-05T01:47:44.117Z,99094.66
2023-01-05T01:50:20.661Z,99085.75
2023-01-05T01:52:58.927Z,99082.13
2023-01-05T01:55:32.114Z,99066.72
2023-01-05T01:58:08.324Z,99080.94
2023-01-05T02:00:41.569Z,99009.78
2023-01-05T02:03:14.768Z,99046.44
2023-01-05T02:05:46.892Z,99057.47
2023-01-05T02:08:25.829Z,99042.34
2023-01-05T02:11:16.091Z,99060.06
2023-01-05T02:14:12.368Z,99045.41
2023-01-05T02:16:50.192Z,99058.19
2023-01-05T02:19:40.960Z,99041.50
2023-01-05T02:22:35.330Z,99040.81
2023-01-05T02:25:46.099Z,99050.44
2023-01-05T02:28:42.604Z,99041.50
2023-01-05T02:31:28.724Z,99040.59
2023-01-05T02:34:18.632Z,99046.56
2023-01-05T02:37:00.257Z,99039.75
2023-01-05T02:39:58.370Z,99027.09
2023-01-05T02:42:34.873Z,99001.38
2023-01-05T02:45:08.378Z,99034.94
2023-01-05T02:47:43.231Z,99024.63
2023-01-05T02:50:23.551Z,99008.41
2023-01-05T02:53:06.102Z,99007.59
2023-01-05T02:55:44.301Z,99010.06
2023-01-05T02:58:19.185Z,99015.44
2023-01-05T03:00:59.317Z,98991.72
2023-01-05T03:03:43.674Z,98992.09
2023-01-05T03:06:34.766Z,98998.41
2023-01-05T03:09:07.151Z,98988.69
2023-01-05T03:12:22.889Z,98981.28
2023-01-05T03:15:00.321Z,99001.59
2023-01-05T03:17:37.084Z,98982.47
2023-01-05T03:20:09.470Z,98971.56
2023-01-05T03:23:03.154Z,98967.56
2023-01-05T03:25:57.869Z,98997.59
2023-01-05T03:29:02.299Z,98985.84
2023-01-05T03:32:04.570Z,98997.34
2023-01-05T03:35:03.251Z,98991.38
2023-01-05T03:37:40.026Z,98970.47
2023-01-05T03:40:19.938Z,98978.47
2023-01-05T03:45:28.822Z,98961.47
2023-01-05T03:48:00.838Z,98970.34
2023-01-05T03:50:32.907Z,98968.22
2023-01-05T03:53:05.516Z,98967.50
2023-01-05T03:55:37.499Z,98955.22
2023-01-05T03:58:09.617Z,98959.09
2023-01-05T04:00:41.637Z,98931.41
2023-01-05T04:03:13.679Z,98943.00
2023-01-05T04:05:45.723Z,98906.09
2023-01-05T04:08:17.575Z,98937.84
2023-01-05T04:10:52.737Z,98913.59
2023-01-05T04:13:25.403Z,98937.97
2023-01-05T04:15:57.361Z,98935.19
2023-01-05T04:18:29.373Z,98922.00
2023-01-05T04:21:01.449Z,98921.88
2023-01-05T04:23:34.192Z,98934.91
2023-01-05T04:26:06.734Z,98939.34
2023-01-05T04:28:38.738Z,98935.25
2023-01-05T04:31:10.733Z,98941.00
2023-01-05T04:33:45.691Z,98934.91
2023-01-05T04:36:17.667Z,98914.25
2023-01-05T04:38:49.676Z,98943.72
2023-01-05T04:41:21.634Z,98932.94
2023-01-05T04:43:53.564Z,98941.09
2023-01-05T04:46:25.452Z,98912.41
2023-01-05T04:48:57.380Z,98916.84
2023-01-05T04:51:29.295Z,98931.13
2023-01-05T04:54:01.167Z,98907.72
2023-01-05T04:56:33.148Z,98916.25
2023-01-05T04:59:05.329Z,98936.38
2023-01-05T05:01:37.423Z,98928.81
2023-01-05T05:04:09.415Z,98930.94
2023-01-05T05:06:41.339Z,98936.66
2023-01-05T05:09:13.267Z,98943.56
2023-01-05T05:11:45.223Z,98932.78
2023-01-05T05:14:17.193Z,98923.06
2023-01-05T05:16:49.464Z,98940.03
2023-01-05T05:19:21.428Z,98920.34
2023-01-05T05:21:53.419Z,98942.63
2023-01-05T05:24:25.341Z,98934.28
2023-01-05T05:26:57.730Z,98939.78
2023-01-05T05:29:29.729Z,98898.44
2023-01-05T05:32:01.689Z,98935.34
2023-01-05T05:34:33.714Z,98918.13
2023-01-05T05:37:05.929Z,98934.66
2023-01-05T05:39:37.871Z,98926.56
2023-01-05T05:42:09.790Z,98927.16
2023-01-05T05:44:41.738Z,98942.88
2023-01-05T05:47:13.709Z,98926.09
2023-01-05T05:49:45.641Z,98924.13
2023-01-05T05:52:18.621Z,98948.03
2023-01-05T05:54:50.534Z,98945.19
2023-01-05T05:57:22.591Z,98935.47
2023-01-05T05:59:54.548Z,98934.91
2023-01-05T06:02:26.600Z,98927.88
2023-01-05T06:04:58.582Z,98925.97
2023-01-05T06:07:30.567Z,98914.88
2023-01-05T06:10:02.712Z,98952.84
2023-01-05T06:12:34.802Z,98952.47
2023-01-05T06:15:10.440Z,98959.63
2023-01-05T06:17:42.585Z,98945.03
2023-01-05T06:20:16.831Z,98955.44
2023-01-05T06:22:48.829Z,98906.78
2023-01-05T06:25:20.743Z,98954.50
2023-01-05T06:27:52.676Z,98966.03
2023-01-05T06:30:24.742Z,98959.34
2023-01-05T06:32:56.824Z,98959.78
2023-01-05T06:35:28.770Z,98953.00
2023-01-05T06:38:00.687Z,98949.94
2023-01-05T06:40:32.660Z,98964.47
2023-01-05T06:43:04.642Z,98964.81
2023-01-05T06:45:36.704Z,98953.78
2023-01-05T06:48:08.716Z,98945.22
2023-01-05T06:50:40.662Z,98969.88
2023-01-05T06:53:12.494Z,98973.28
2023-01-05T06:55:45.538Z,98946.28
2023-01-05T06:58:17.391Z,98972.56
2023-01-05T07:00:49.351Z,98973.28
2023-01-05T07:03:24.044Z,98968.47
2023-01-05T07:05:55.948Z,98979.72
2023-01-05T07:08:27.909Z,98974.81
2023-01-05T07:10:59.882Z,98980.88
2023-01-05T07:13:31.808Z,98958.63
2023-01-05T07:16:03.870Z,98964.09
2023-01-05T07:18:35.894Z,98968.44
2023-01-05T07:21:08.035Z,98973.81
2023-01-05T07:23:39.991Z,98983.22
2023-01-05T07:26:11.879Z,98966.78
2023-01-05T07:28:43.921Z,98955.06
2023-01-05T07:31:15.894Z,98940.28
2023-01-05T07:33:47.900Z,98975.78
2023-01-05T07:36:19.849Z,98980.47
2023-01-05T07:38:53.327Z,98988.53
2023-01-05T07:41:25.271Z,99006.41
2023-01-05T07:43:57.217Z,98993.03
2023-01-05T07:46:29.189Z,98981.75
2023-01-05T07:49:01.661Z,98992.19
2023-01-05T07:51:33.622Z,98994.91
2023-01-05T07:54:05.617Z,98957.63
2023-01-05T07:56:37.561Z,98964.91
2023-01-05T07:59:09.479Z,98986.22
2023-01-05T08:01:41.758Z,99000.66
2023-01-05T08:04:13.792Z,98985.97
2023-01-05T08:06:45.810Z,99000.03
2023-01-05T08:09:36.182Z,98980.13
2023-01-05T08:12:08.589Z,98992.28
2023-01-05T08:14:41.026Z,98988.50
2023-01-05T08:17:13.289Z,99007.50
2023-01-05T08:19:45.314Z,98993.28
2023-01-05T08:22:17.321Z,98992.13
2023-01-05T08:24:49.294Z,99006.56
2023-01-05T08:27:21.276Z,99010.03
2023-01-05T08:29:53.284Z,99021.00
2023-01-05T08:32:25.220Z,98985.88
2023-01-05T08:34:57.130Z,99004.13
2023-01-05T08:37:29.058Z,98985.31
2023-01-05T08:40:00.973Z,99009.06
2023-01-05T08:42:32.808Z,98992.56
2023-01-05T08:45:05.074Z,98992.06
2023-01-05T08:47:36.929Z,99018.34
2023-01-05T08:50:11.593Z,99007.84
2023-01-05T08:52:43.573Z,99016.41
2023-01-05T08:55:15.579Z,98995.25
2023-01-05T08:57:47.508Z,99012.44
2023-01-05T09:00:22.217Z,99025.59
2023-01-05T09:02:54.364Z,99012.59
2023-01-05T09:05:29.078Z,99033.16
2023-01-05T09:08:01.027Z,99019.41
2023-01-05T09:10:33.005Z,99028.00
2023-01-05T09:13:04.948Z,99025.06
2023-01-05T09:15:37.118Z,99036.66
2023-01-05T09:18:09.215Z,99011.56
2023-01-05T09:20:41.120Z,99017.50
2023-01-05T09:23:13.074Z,99021.47
2023-01-05T09:25:44.999Z,99016.81
2023-01-05T09:28:16.961Z,99001.19
2023-01-05T09:30:51.066Z,99035.88
2023-01-05T09:33:23.431Z,99029.19
2023-01-05T09:35:56.606Z,99053.16
2023-01-05T09:38:28.562Z,99041.78
2023-01-05T09:41:14.192Z,99050.94
2023-01-05T09:43:48.325Z,99044.94
2023-01-05T09:46:28.202Z,99043.88
2023-01-05T09:49:04.045Z,99035.44
2023-01-05T09:51:36.704Z,99063.53
2023-01-05T09:54:16.647Z,99046.69
2023-01-05T09:59:46.679Z,99042.47
2023-01-05T10:02:35.626Z,99025.13
2023-01-05T10:05:08.061Z,99043.97
2023-01-05T10:07:54.940Z,99058.94
2023-01-05T10:10:42.027Z,99054.75
2023-01-05T10:13:31.654Z,99047.91
2023-01-05T10:16:03.808Z,99052.00
2023-01-05T10:18:37.837Z,99034.41
2023-01-05T10:21:33.011Z,99043.38
2023-01-05T10:24:22.003Z,99065.16
2023-01-05T10:27:27.087Z,99056.63
2023-01-05T10:30:26.051Z,99064.56
2023-01-05T10:36:16.515Z,99062.13
2023-01-05T10:38:54.684Z,99080.00
2023-01-05T10:41:34.816Z,99048.97
2023-01-05T10:44:15.867Z,99062.53
2023-01-05T10:46:52.704Z,99069.06
2023-01-05T10:49:28.238Z,99064.50
2023-01-05T10:52:01.482Z,99068.53
2023-01-05T10:54:40.387Z,99069.34
2023-01-05T10:57:35.313Z,99066.47
2023-01-05T11:00:16.319Z,99059.91
2023-01-05T11:03:03.895Z,99064.59
2023-01-05T11:05:44.061Z,99067.97
2023-01-05T11:08:18.520Z,99076.22
2023-01-05T11:10:57.926Z,99071.53
2023-01-05T11:13:37.211Z,99077.63
2023-01-05T11:16:15.276Z,99084.31
2023-01-05T11:18:53.917Z,99084.31
2023-01-05T11:21:31.462Z,99084.44
2023-01-05T11:24:04.422Z,99071.31
2023-01-05T11:26:38.171Z,99092.09
2023-01-05T11:29:10.023Z,99097.63
2023-01-05T11:31:53.486Z,99086.22
2023-01-05T11:34:49.662Z,99091.28
2023-01-05T11:37:28.933Z,99092.66
2023-01-05T11:40:03.091Z,99081.06
2023-01-05T11:42:42.131Z,99069.44
2023-01-05T11:45:21.030Z,99080.00
2023-01-05T11:47:57.463Z,99088.47
2023-01-05T11:50:34.639Z,99049.38
2023-01-05T11:53:06.639Z,99061.47
2023-01-05T11:55:40.293Z,99053.97
2023-01-05T11:58:15.274Z,99080.34
2023-01-05T12:01:18.068Z,99089.16
2023-01-05T12:04:02.005Z,99083.31
2023-01-05T12:07:00.251Z,99085.41
2023-01-05T12:09:35.013Z,99080.13
2023-01-05T12:12:19.461Z,99089.84
2023-01-05T12:15:12.876Z,99089.56
2023-01-05T12:17:56.231Z,99087.00
2023-01-05T12:20:37.194Z,99083.69
2023-01-05T12:23:15.137Z,99096.28
2023-01-05T12:26:29.014Z,99086.31
2023-01-05T12:31:29.395Z,99086.88
2023-01-05T12:35:46.462Z,99088.66
2023-01-05T12:38:25.021Z,99101.19
2023-01-05T12:41:34.826Z,99098.84
2023-01-05T12:44:24.757Z,99101.31
2023-01-05T12:47:05.024Z,99097.09
2023-01-05T12:49:48.096Z,99086.75
2023-01-05T12:52:29.503Z,99087.44
2023-01-05T12:55:32.673Z,99084.06
2023-01-05T12:58:13.577Z,99091.69
2023-01-05T13:00:47.146Z,99087.34
2023-01-05T13:03:35.992Z,99099.34
2023-01-05T13:06:17.270Z,99082.69
2023-01-05T13:08:52.261Z,99093.69
2023-01-05T13:11:44.295Z,99094.28
2023-01-05T13:14:27.692Z,99091.84
2023-01-05T13:17:04.051Z,99093.50
2023-01-05T13:19:46.834Z,99099.59
2023-01-05T13:22:28.595Z,99081.28
2023-01-05T13:25:09.368Z,99117.09
2023-01-05T13:27:41.184Z,99111.22
2023-01-05T13:30:27.756Z,99104.91
2023-01-05T13:33:32.977Z,99114.31
2023-01-05T13:36:26.663Z,99124.03
2023-01-05T13:39:43.856Z,99118.97
2023-01-05T13:42:43.257Z,99130.13
2023-01-05T13:45:38.328Z,99123.03
2023-01-05T13:48:34.097Z,99128.09
2023-01-05T13:51:37.949Z,99132.53
2023-01-05T13:54:32.993Z,99140.59
2023-01-05T13:57:24.266Z,99126.25
2023-01-05T14:00:10.386Z,99140.59
2023-01-05T14:02:46.671Z,99131.66
2023-01-05T14:05:33.837Z,99145.78
2023-01-05T14:08:14.677Z,99138.72
2023-01-05T14:11:06.383Z,99152.53
2023-01-05T14:13:51.747Z,99153.41
2023-01-05T14:16:36.197Z,99154.09
2023-01-05T14:19:45.528Z,99166.50
2023-01-05T14:22:20.332Z,99162.09
2023-01-05T14:24:54.294Z,99159.59
2023-01-05T14:27:27.842Z,99164.88
2023-01-05T14:30:01.170Z,99160.13
2023-01-05T14:32:55.166Z,99146.84
2023-01-05T14:35:37.253Z,99156.94
2023-01-05T14:38:23.567Z,99163.50
2023-01-05T14:40:56.612Z,99128.88
2023-01-05T14:43:34.271Z,99168.06
2023-01-05T14:46:15.165Z,99162.91
2023-01-05T14:49:11.444Z,99167.25
2023-01-05T14:51:55.586Z,99152.09
2023-01-05T14:54:42.533Z,99164.91
2023-01-05T14:57:26.710Z,99165.72
2023-01-05T15:00:10.823Z,99168.72
2023-01-05T15:03:05.011Z,99161.53
2023-01-05T15:05:53.049Z,99174.78
2023-01-05T15:09:01.037Z,99159.88
2023-01-05T15:11:57.981Z,99180.69
2023-01-05T15:15:02.681Z,99143.47
2023-01-05T15:17:56.483Z,99180.44
2023-01-05T15:20:49.581Z,99173.66
2023-01-05T15:23:33.522Z,99178.06
2023-01-05T15:26:08.566Z,99184.53
2023-01-05T15:28:44.007Z,99172.16
2023-01-05T15:31:35.720Z,99173.69
2023-01-05T15:34:39.021Z,99177.66
2023-01-05T15:37:13.701Z,99167.72
2023-01-05T15:39:51.803Z,99148.56
2023-01-05T15:42:43.750Z,99168.94
2023-01-05T15:45:28.499Z,99175.81
2023-01-05T15:48:10.113Z,99153.72
2023-01-05T15:50:51.074Z,99172.53
2023-01-05T15:53:36.685Z,99165.66
2023-01-05T15:56:35.064Z,99172.31
2023-01-05T15:59:32.267Z,99171.63
2023-01-05T16:02:17.274Z,99112.13
2023-01-05T16:04:49.221Z,99165.31
2023-01-05T16:07:21.188Z,99164.31
2023-01-05T16:09:53.182Z,99173.19
2023-01-05T16:12:26.859Z,99155.63
2023-01-05T16:15:04.765Z,99180.13
2023-01-05T16:17:38.987Z,99170.13
2023-01-05T16:20:19.412Z,99168.75
2023-01-05T16:23:24.047Z,99151.00
2023-01-05T16:26:00.325Z,99180.94
2023-01-05T16:28:33.131Z,99171.91
2023-01-05T16:31:14.443Z,99181.06
2023-01-05T16:33:46.836Z,99189.00
2023-01-05T16:36:21.557Z,99198.81
2023-01-05T16:38:53.546Z,99188.31
2023-01-05T16:41:27.276Z,99192.03
2023-01-05T16:44:01.405Z,99190.13
2023-01-05T16:46:40.455Z,99216.81
2023-01-05T16:49:35.019Z,99218.66
2023-01-05T16:52:09.462Z,99221.16
2023-01-05T16:54:41.970Z,99228.59
2023-01-05T16:57:38.765Z,99235.19
2023-01-05T17:00:26.112Z,99242.22
2023-01-05T17:02:59.583Z,99248.91
2023-01-05T17:05:35.185Z,99248.94
2023-01-05T17:08:16.617Z,99253.75
2023-01-05T17:10:49.254Z,99274.69
2023-01-05T17:13:25.722Z,99272.94
2023-01-05T17:15:57.862Z,99274.66
2023-01-05T17:18:29.882Z,99286.44
2023-01-05T17:21:05.093Z,99310.03
2023-01-05T17:23:42.536Z,99287.66
2023-01-05T17:26:22.622Z,99313.44
2023-01-05T17:28:58.941Z,99298.47
2023-01-05T17:31:31.225Z,99308.91
2023-01-05T17:34:03.175Z,99309.69
2023-01-05T17:36:36.177Z,99343.19
2023-01-05T17:39:08.652Z,99340.53
2023-01-05T17:41:40.924Z,99345.88
2023-01-05T17:44:13.428Z,99337.16
2023-01-05T17:46:47.197Z,99378.63
2023-01-05T17:49:21.394Z,99376.03
2023-01-05T17:51:53.329Z,99370.63
2023-01-05T17:54:25.307Z,99356.06
2023-01-05T17:56:57.315Z,99380.03
2023-01-05T17:59:29.306Z,99384.66
2023-01-05T18:02:01.249Z,99407.00
2023-01-05T18:04:33.478Z,99384.38
2023-01-05T18:07:05.471Z,99392.78
2023-01-05T18:09:38.409Z,99404.69
2023-01-05T18:12:10.375Z,99404.59
2023-01-05T18:14:44.192Z,99413.88
2023-01-05T18:17:16.339Z,99402.69
2023-01-05T18:19:48.294Z,99409.22
2023-01-05T18:22:20.257Z,99443.09
2023-01-05T18:24:52.679Z,99432.53
2023-01-05T18:27:25.604Z,99434.56
2023-01-05T18:29:57.670Z,99426.00
2023-01-05T18:35:05.718Z,99453.56
2023-01-05T18:37:41.819Z,99413.91
2023-01-05T18:40:13.901Z,99472.41
2023-01-05T18:42:45.897Z,99442.53
2023-01-05T18:45:19.770Z,99456.97
2023-01-05T18:47:58.944Z,99458.59
2023-01-05T18:50:30.889Z,99453.84
2023-01-05T18:53:02.806Z,99482.31
2023-01-05T18:55:34.779Z,99483.22
2023-01-05T18:58:06.736Z,99509.59
2023-01-05T19:00:43.819Z,99511.16
2023-01-05T19:03:15.701Z,99523.13
2023-01-05T19:05:47.570Z,99528.81
2023-01-05T19:08:19.432Z,99526.78
2023-01-05T19:10:51.430Z,99513.19
2023-01-05T19:13:23.396Z,99550.84
2023-01-05T19:16:00.469Z,99503.78
2023-01-05T19:18:32.485Z,99553.78
2023-01-05T19:21:04.493Z,99543.59
2023-01-05T19:23:36.534Z,99546.88
2023-01-05T19:26:08.508Z,99585.00
2023-01-05T19:28:45.560Z,99572.31
2023-01-05T19:31:19.289Z,99593.81
2023-01-05T19:33:52.724Z,99583.25
2023-01-05T19:36:25.752Z,99611.31
2023-01-05T19:39:01.994Z,99595.97
2023-01-05T19:41:34.839Z,99601.69
2023-01-05T19:44:06.960Z,99628.13
2023-01-05T19:46:38.943Z,99622.84
2023-01-05T19:49:17.788Z,99622.91
2023-01-05T19:51:50.455Z,99620.25
2023-01-05T19:54:23.150Z,99621.09
2023-01-05T19:56:55.319Z,99631.38
2023-01-05T19:59:33.489Z,99625.34
2023-01-05T20:02:06.337Z,99643.66
2023-01-05T20:04:38.541Z,99639.78
2023-01-05T20:07:10.598Z,99644.47
2023-01-05T20:09:42.553Z,99654.50
2023-01-05T20:12:15.605Z,99669.59
2023-01-05T20:14:47.794Z,99662.34
2023-01-05T20:17:19.688Z,99696.69
2023-01-05T20:19:51.613Z,99698.44
2023-01-05T20:22:23.453Z,99639.88
2023-01-05T20:24:55.349Z,99702.75
2023-01-05T20:27:27.232Z,99691.75
2023-01-05T20:29:59.255Z,99717.28
2023-01-05T20:32:31.162Z,99694.47
2023-01-05T20:35:03.166Z,99724.50
2023-01-05T20:37:35.167Z,99721.97
2023-01-05T20:40:07.491Z,99726.03
2023-01-05T20:42:39.655Z,99757.44
2023-01-05T20:45:11.608Z,99770.88
2023-01-05T20:47:47.790Z,99753.81
2023-01-05T20:50:20.026Z,99755.56
2023-01-05T20:52:51.969Z,99750.28
2023-01-05T20:55:23.931Z,99765.06
2023-01-05T20:57:55.873Z,99765.84
2023-01-05T21:00:27.860Z,99800.94
2023-01-05T21:02:59.824Z,99792.41
2023-01-05T21:05:31.898Z,99796.47
2023-01-05T21:08:03.968Z,99811.81
2023-01-05T21:10:39.353Z,99837.94
2023-01-05T21:13:30.455Z,99810.22
2023-01-05T21:16:05.933Z,99830.66
2023-01-05T21:18:37.838Z,99839.13
2023-01-05T21:21:11.205Z,99834.28
2023-01-05T21:23:47.420Z,99858.50
2023-01-05T21:26:20.316Z,99864.97
2023-01-05T21:28:53.709Z,99898.50
2023-01-05T21:31:27.178Z,99888.72
2023-01-05T21:33:59.697Z,99883.06
2023-01-05T21:36:33.668Z,99901.50
2023-01-05T21:39:08.668Z,99892.06
2023-01-05T21:42:00.108Z,99890.28
2023-01-05T21:44:33.419Z,99919.94
2023-01-05T21:47:06.817Z,99928.41
2023-01-05T21:49:38.972Z,99921.47
2023-01-05T21:52:30.140Z,99917.97
2023-01-05T21:55:20.808Z,99918.06
2023-01-05T21:57:52.773Z,99945.50
2023-01-05T22:00:25.051Z,99931.38
2023-01-05T22:02:57.201Z,99956.44
2023-01-05T22:05:29.120Z,99950.44
2023-01-05T22:08:01.075Z,99962.22
2023-01-05T22:10:32.974Z,99976.50
2023-01-05T22:13:06.464Z,99996.00
2023-01-05T22:15:38.395Z,99987.56
2023-01-05T22:18:10.400Z,100003.59
2023-01-05T22:20:42.349Z,100019.25
2023-01-05T22:23:14.319Z,100019.50
2023-01-05T22:25:46.246Z,100023.03
2023-01-05T22:28:18.231Z,100030.13
2023-01-05T22:30:50.150Z,100028.59
2023-01-05T22:33:22.077Z,99998.69
2023-01-05T22:35:54.068Z,100022.25
2023-01-05T22:38:26.678Z,100060.00
2023-01-05T22:41:00.405Z,100077.19
2023-01-05T22:43:32.455Z,100059.81
2023-01-05T22:46:07.404Z,100098.53
2023-01-05T22:48:41.585Z,100089.41
2023-01-05T22:51:14.741Z,100106.69
2023-01-05T22:53:46.892Z,100102.38
2023-01-05T22:56:20.521Z,100116.25
2023-01-05T22:58:52.753Z,100124.09
2023-01-05T23:01:39.951Z,100124.72
2023-01-05T23:04:12.656Z,100147.78
2023-01-05T23:06:44.762Z,100147.63
2023-01-05T23:09:17.554Z,100162.78
2023-01-05T23:11:49.501Z,100145.03
2023-01-05T23:14:22.161Z,100150.06
2023-01-05T23:16:54.131Z,100149.41
2023-01-05T23:19:26.113Z,100123.41
2023-01-05T23:21:58.040Z,100175.13
2023-01-05T23:24:30.075Z,100166.47
2023-01-05T23:27:02.011Z,100211.19
2023-01-05T23:29:34.589Z,100215.50
2023-01-05T23:32:06.769Z,100209.09
2023-01-05T23:34:40.208Z,100209.22
2023-01-05T23:37:12.838Z,100195.06
2023-01-05T23:39:44.818Z,100213.59
2023-01-05T23:42:35.390Z,100248.22
2023-01-05T23:45:08.071Z,100245.50
2023-01-05T23:47:43.088Z,100239.25
2023-01-05T23:50:14.997Z,100234.84
2023-01-05T23:52:46.930Z,100255.09
2023-01-05T23:55:18.858Z,100268.03
2023-01-05T23:57:50.796Z,100292.25
